createdAt,value
2022-12-15T00:00:43.693Z,34.13
2022-12-15T00:03:30.175Z,32.60
2022-12-15T00:06:19.660Z,33.97
2022-12-15T00:09:09.718Z,35.27
2022-12-15T00:11:58.551Z,36.17
2022-12-15T00:14:44.357Z,32.83
2022-12-15T00:17:31.970Z,35.43
2022-12-15T00:20:18.137Z,40.03
2022-12-15T00:23:03.982Z,35.63
2022-12-15T00:25:49.901Z,37.50
2022-12-15T00:28:35.920Z,38.40
2022-12-15T00:31:21.838Z,36.00
2022-12-15T00:34:09.547Z,36.50
2022-12-15T00:36:56.086Z,36.30
2022-12-15T00:39:24.832Z,33.17
2022-12-15T00:41:53.415Z,37.47
2022-12-15T00:44:23.252Z,39.63
2022-12-15T00:46:56.960Z,33.43
2022-12-15T00:49:48.183Z,34.83
2022-12-15T00:52:36.907Z,32.57
2022-12-15T00:55:24.183Z,37.83
2022-12-15T00:58:13.053Z,33.90
2022-12-15T01:00:59.231Z,33.93
2022-12-15T01:03:45.317Z,33.13
2022-12-15T01:06:35.827Z,37.93
2022-12-15T01:09:23.041Z,37.83
2022-12-15T01:12:08.956Z,32.40
2022-12-15T01:14:54.977Z,32.90
2022-12-15T01:17:41.130Z,34.03
2022-12-15T01:20:20.070Z,35.13
2022-12-15T01:22:56.130Z,35.83
2022-12-15T01:25:27.652Z,33.50
2022-12-15T01:27:56.862Z,36.73
2022-12-15T01:30:28.480Z,35.73
2022-12-15T01:32:57.135Z,35.07
2022-12-15T01:35:27.658Z,36.13
2022-12-15T01:37:57.828Z,36.30
2022-12-15T01:40:43.804Z,35.03
2022-12-15T01:43:17.741Z,33.83
2022-12-15T01:46:02.378Z,36.93
2022-12-15T01:48:55.678Z,34.97
2022-12-15T01:51:34.740Z,37.67
2022-12-15T01:54:09.415Z,37.47
2022-12-15T01:56:45.369Z,36.90
2022-12-15T01:59:19.658Z,43.73
2022-12-15T02:01:49.575Z,37.60
2022-12-15T02:04:22.256Z,43.00
2022-12-15T02:06:53.127Z,36.43
2022-12-15T02:09:26.270Z,36.80
2022-12-15T02:12:07.384Z,37.10
2022-12-15T02:14:59.945Z,39.50
2022-12-15T02:17:42.067Z,32.60
2022-12-15T02:20:54.279Z,33.83
2022-12-15T02:23:59.737Z,37.77
2022-12-15T02:27:17.002Z,37.43
2022-12-15T02:30:37.346Z,34.00
2022-12-15T02:33:13.830Z,39.17
2022-12-15T02:36:01.731Z,36.27
2022-12-15T02:38:33.645Z,38.17
2022-12-15T02:41:05.210Z,37.70
2022-12-15T02:43:40.062Z,36.37
2022-12-15T02:46:28.038Z,36.73
2022-12-15T02:49:10.973Z,39.37
2022-12-15T02:51:58.000Z,38.63
2022-12-15T02:54:50.086Z,37.43
2022-12-15T02:57:28.588Z,40.03
2022-12-15T03:00:03.786Z,42.13
2022-12-15T03:02:37.782Z,44.03
2022-12-15T03:05:07.963Z,38.03
2022-12-15T03:07:36.618Z,37.07
2022-12-15T03:10:08.216Z,39.13
2022-12-15T03:12:37.131Z,40.07
2022-12-15T03:15:07.532Z,39.73
2022-12-15T03:17:38.373Z,39.60
2022-12-15T03:20:09.067Z,39.43
2022-12-15T03:22:38.508Z,38.47
2022-12-15T03:25:08.214Z,38.93
2022-12-15T03:27:37.932Z,36.97
2022-12-15T03:30:08.876Z,38.87
2022-12-15T03:32:39.158Z,38.73
2022-12-15T03:35:10.077Z,36.43
2022-12-15T03:37:38.666Z,36.80
2022-12-15T03:40:09.147Z,39.57
2022-12-15T03:42:50.093Z,40.50
2022-12-15T03:45:20.966Z,39.57
2022-12-15T03:47:52.770Z,38.47
2022-12-15T03:50:26.174Z,45.07
2022-12-15T03:52:57.472Z,35.53
2022-12-15T03:55:28.865Z,38.47
2022-12-15T03:57:59.270Z,36.30
2022-12-15T04:00:28.775Z,35.50
2022-12-15T04:02:59.047Z,35.77
2022-12-15T04:05:31.241Z,37.53
2022-12-15T04:08:01.893Z,37.80
2022-12-15T04:10:36.119Z,36.07
2022-12-15T04:13:07.566Z,38.97
2022-12-15T04:15:37.383Z,37.37
2022-12-15T04:18:11.069Z,40.13
2022-12-15T04:20:40.364Z,45.13
2022-12-15T04:23:09.706Z,50.33
2022-12-15T04:25:56.787Z,50.67
2022-12-15T04:28:42.975Z,53.80
2022-12-15T04:31:36.394Z,42.70
2022-12-15T04:34:29.880Z,39.73
2022-12-15T04:37:16.203Z,40.60
2022-12-15T04:40:06.211Z,40.07
2022-12-15T04:42:55.044Z,38.13
2022-12-15T04:45:44.206Z,41.40
2022-12-15T04:48:30.484Z,38.60
2022-12-15T04:51:18.341Z,40.00
2022-12-15T04:54:05.179Z,44.13
2022-12-15T04:56:51.718Z,45.43
2022-12-15T04:59:37.936Z,41.50
2022-12-15T05:02:24.272Z,40.87
2022-12-15T05:05:10.191Z,39.90
2022-12-15T05:07:57.597Z,45.33
2022-12-15T05:10:43.446Z,44.30
2022-12-15T05:13:29.573Z,39.80
2022-12-15T05:16:15.935Z,38.57
2022-12-15T05:19:02.110Z,41.10
2022-12-15T05:21:48.109Z,44.03
2022-12-15T05:24:35.601Z,44.20
2022-12-15T05:27:21.725Z,44.67
2022-12-15T05:30:07.893Z,42.30
2022-12-15T05:32:36.679Z,39.97
2022-12-15T05:35:06.130Z,38.47
2022-12-15T05:37:34.847Z,47.30
2022-12-15T05:40:06.349Z,49.63
2022-12-15T05:42:34.959Z,54.07
2022-12-15T05:45:05.298Z,46.27
2022-12-15T05:47:33.915Z,47.03
2022-12-15T05:50:02.588Z,47.80
2022-12-15T05:52:31.751Z,47.37
2022-12-15T05:55:00.488Z,44.03
2022-12-15T05:57:30.626Z,43.73
2022-12-15T05:59:59.356Z,41.60
2022-12-15T06:02:29.986Z,45.87
2022-12-15T06:04:58.725Z,48.70
2022-12-15T06:07:27.664Z,47.40
2022-12-15T06:09:56.399Z,50.47
2022-12-15T06:12:25.106Z,56.33
2022-12-15T06:14:55.344Z,53.17
2022-12-15T06:17:24.331Z,47.37
2022-12-15T06:19:53.001Z,47.23
2022-12-15T06:22:21.653Z,52.17
2022-12-15T06:24:51.282Z,49.07
2022-12-15T06:27:19.986Z,47.10
2022-12-15T06:29:48.690Z,48.83
2022-12-15T06:32:18.718Z,52.03
2022-12-15T06:34:47.454Z,45.27
2022-12-15T06:37:16.362Z,49.33
2022-12-15T06:39:44.988Z,49.10
2022-12-15T06:42:14.701Z,47.70
2022-12-15T06:44:43.600Z,47.93
2022-12-15T06:47:12.294Z,46.33
2022-12-15T06:49:42.303Z,49.37
2022-12-15T06:52:10.980Z,51.37
2022-12-15T06:54:39.778Z,49.07
2022-12-15T06:57:08.492Z,51.03
2022-12-15T06:59:37.071Z,47.77
2022-12-15T07:02:06.065Z,46.43
2022-12-15T07:04:34.864Z,48.90
2022-12-15T07:07:04.927Z,49.30
2022-12-15T07:09:33.588Z,49.77
2022-12-15T07:12:02.340Z,48.57
2022-12-15T07:14:31.058Z,50.80
2022-12-15T07:16:59.780Z,50.13
2022-12-15T07:19:28.631Z,49.90
2022-12-15T07:21:57.951Z,51.70
2022-12-15T07:24:27.958Z,53.27
2022-12-15T07:26:57.460Z,50.60
2022-12-15T07:29:26.103Z,48.50
2022-12-15T07:31:54.952Z,53.80
2022-12-15T07:34:24.169Z,56.17
2022-12-15T07:36:53.012Z,57.03
2022-12-15T07:39:21.653Z,59.27
2022-12-15T07:41:51.688Z,56.67
2022-12-15T07:44:20.902Z,56.27
2022-12-15T07:46:50.266Z,54.13
2022-12-15T07:49:19.791Z,51.53
2022-12-15T07:51:48.745Z,56.73
2022-12-15T07:54:18.067Z,58.80
2022-12-15T07:56:50.375Z,80.17
2022-12-15T07:59:20.979Z,70.77
2022-12-15T08:01:50.036Z,62.67
2022-12-15T08:04:19.511Z,61.07
2022-12-15T08:06:48.197Z,57.20
2022-12-15T08:09:16.941Z,59.57
2022-12-15T08:11:45.561Z,54.13
2022-12-15T08:14:17.645Z,53.13
2022-12-15T08:16:48.586Z,53.03
2022-12-15T08:19:19.144Z,50.53
2022-12-15T08:21:48.526Z,52.40
2022-12-15T08:24:19.474Z,49.33
2022-12-15T08:26:49.975Z,47.00
2022-12-15T08:32:10.094Z,47.00
2022-12-15T08:34:40.087Z,50.97
2022-12-15T08:37:09.612Z,52.37
2022-12-15T08:39:39.064Z,49.10
2022-12-15T08:42:07.904Z,48.17
2022-12-15T08:44:36.880Z,50.90
2022-12-15T08:47:05.986Z,46.50
2022-12-15T08:49:36.261Z,48.63
2022-12-15T08:52:05.111Z,48.93
2022-12-15T08:54:34.141Z,48.20
2022-12-15T08:57:02.827Z,47.80
2022-12-15T08:59:31.496Z,44.97
2022-12-15T09:02:01.577Z,47.57
2022-12-15T09:04:30.640Z,48.40
2022-12-15T09:07:00.896Z,49.93
2022-12-15T09:09:29.640Z,45.13
2022-12-15T09:11:58.328Z,50.67
2022-12-15T09:14:29.380Z,49.70
2022-12-15T09:16:58.489Z,50.80
2022-12-15T09:19:28.094Z,48.90
2022-12-15T09:21:56.940Z,51.60
2022-12-15T09:24:34.743Z,49.20
2022-12-15T09:27:05.523Z,50.53
2022-12-15T09:29:35.155Z,51.87
2022-12-15T09:32:07.747Z,53.63
2022-12-15T09:34:40.871Z,54.47
2022-12-15T09:37:09.684Z,51.07
2022-12-15T09:39:40.235Z,53.63
2022-12-15T09:42:28.365Z,49.70
2022-12-15T09:45:07.832Z,52.10
2022-12-15T09:47:44.848Z,53.87
2022-12-15T09:50:16.695Z,53.47
2022-12-15T09:52:51.598Z,54.07
2022-12-15T09:55:25.679Z,56.43
2022-12-15T09:57:56.732Z,51.93
2022-12-15T10:00:30.491Z,50.70
2022-12-15T10:03:34.957Z,56.10
2022-12-15T10:06:16.706Z,53.03
2022-12-15T10:08:51.499Z,57.67
2022-12-15T10:11:41.728Z,59.13
2022-12-15T10:14:26.330Z,57.47
2022-12-15T10:17:12.101Z,59.13
2022-12-15T10:19:50.591Z,59.33
2022-12-15T10:22:26.037Z,54.97
2022-12-15T10:25:11.603Z,59.20
2022-12-15T10:28:09.151Z,63.47
2022-12-15T10:30:44.397Z,57.87
2022-12-15T10:33:20.503Z,59.80
2022-12-15T10:35:51.940Z,54.33
2022-12-15T10:38:33.216Z,62.23
2022-12-15T10:41:05.995Z,65.60
2022-12-15T10:43:39.042Z,61.73
2022-12-15T10:46:15.385Z,64.23
2022-12-15T10:48:48.511Z,65.13
2022-12-15T10:51:23.317Z,72.90
2022-12-15T10:53:55.627Z,64.23
2022-12-15T10:56:33.194Z,60.97
2022-12-15T10:59:23.425Z,74.43
2022-12-15T11:01:53.058Z,64.53
2022-12-15T11:04:29.880Z,63.73
2022-12-15T11:06:59.844Z,60.63
2022-12-15T11:09:35.836Z,60.80
2022-12-15T11:12:35.856Z,63.43
2022-12-15T11:15:51.310Z,63.73
2022-12-15T11:18:32.473Z,61.80
2022-12-15T11:21:08.636Z,70.73
2022-12-15T11:23:53.275Z,69.93
2022-12-15T11:26:50.338Z,60.23
2022-12-15T11:29:46.217Z,65.60
2022-12-15T11:32:26.495Z,65.47
2022-12-15T11:34:56.029Z,65.20
2022-12-15T11:37:44.955Z,69.97
2022-12-15T11:40:40.301Z,70.70
2022-12-15T11:43:45.506Z,71.47
2022-12-15T11:46:24.209Z,73.40
2022-12-15T11:49:40.974Z,73.33
2022-12-15T11:52:27.877Z,78.53
2022-12-15T11:55:04.843Z,75.47
2022-12-15T11:58:29.103Z,71.07
2022-12-15T12:01:11.955Z,77.20
2022-12-15T12:03:58.486Z,77.73
2022-12-15T12:06:40.034Z,77.03
2022-12-15T12:09:33.035Z,74.87
2022-12-15T12:12:16.339Z,74.53
2022-12-15T12:15:03.048Z,70.43
2022-12-15T12:17:43.459Z,74.37
2022-12-15T12:20:20.981Z,72.40
2022-12-15T12:23:02.506Z,76.57
2022-12-15T12:25:37.848Z,75.47
2022-12-15T12:28:17.278Z,78.67
2022-12-15T12:30:50.653Z,78.53
2022-12-15T12:33:34.085Z,75.77
2022-12-15T12:36:11.054Z,75.47
2022-12-15T12:38:50.868Z,79.20
2022-12-15T12:41:32.536Z,71.40
2022-12-15T12:44:10.389Z,75.50
2022-12-15T12:46:48.957Z,85.80
2022-12-15T12:49:31.911Z,77.20
2022-12-15T12:52:05.148Z,75.10
2022-12-15T12:54:55.126Z,81.27
2022-12-15T12:57:41.544Z,84.33
2022-12-15T13:00:22.142Z,82.47
2022-12-15T13:03:21.415Z,81.60
2022-12-15T13:05:54.592Z,80.87
2022-12-15T13:08:51.782Z,86.07
2022-12-15T13:12:14.994Z,80.13
2022-12-15T13:14:51.761Z,81.90
2022-12-15T13:17:32.332Z,83.27
2022-12-15T13:20:29.067Z,77.50
2022-12-15T13:23:34.721Z,78.33
2022-12-15T13:26:15.336Z,87.77
2022-12-15T13:28:51.855Z,84.13
2022-12-15T13:31:49.663Z,82.03
2022-12-15T13:34:36.829Z,85.63
2022-12-15T13:37:52.583Z,84.97
2022-12-15T13:40:35.049Z,85.57
2022-12-15T13:43:32.505Z,85.13
2022-12-15T13:46:16.147Z,85.33
2022-12-15T13:48:49.326Z,87.87
2022-12-15T13:51:35.427Z,85.50
2022-12-15T13:54:16.212Z,89.83
2022-12-15T13:56:56.160Z,85.53
2022-12-15T13:59:42.470Z,90.10
2022-12-15T14:02:33.255Z,90.00
2022-12-15T14:05:21.958Z,87.57
2022-12-15T14:07:59.394Z,90.33
2022-12-15T14:10:40.759Z,95.07
2022-12-15T14:13:16.358Z,92.77
2022-12-15T14:15:52.472Z,92.53
2022-12-15T14:18:31.143Z,91.33
2022-12-15T14:21:01.486Z,93.47
2022-12-15T14:23:39.807Z,96.20
2022-12-15T14:26:11.816Z,94.00
2022-12-15T14:28:45.689Z,86.97
2022-12-15T14:31:19.344Z,96.37
2022-12-15T14:34:03.663Z,95.17
2022-12-15T14:36:34.475Z,97.60
2022-12-15T14:39:07.665Z,101.53
2022-12-15T14:41:44.629Z,103.17
2022-12-15T14:44:36.490Z,104.43
2022-12-15T14:47:22.242Z,110.77
2022-12-15T14:52:46.197Z,116.27
2022-12-15T14:55:35.922Z,121.63
2022-12-15T14:58:27.910Z,113.27
2022-12-15T15:01:02.662Z,114.20
2022-12-15T15:03:15.361Z,120.13
2022-12-15T15:03:39.120Z,110.10
2022-12-15T15:06:19.837Z,112.47
2022-12-15T15:08:54.425Z,117.90
2022-12-15T15:11:31.104Z,111.37
2022-12-15T15:14:06.005Z,111.73
2022-12-15T15:16:35.061Z,122.27
2022-12-15T15:19:05.675Z,122.97
2022-12-15T15:21:38.522Z,124.87
2022-12-15T15:24:30.828Z,121.73
2022-12-15T15:27:33.343Z,122.43
2022-12-15T15:30:22.000Z,123.23
2022-12-15T15:32:57.634Z,128.03
2022-12-15T15:35:33.573Z,122.63
2022-12-15T15:38:25.239Z,120.70
2022-12-15T15:40:56.672Z,136.87
2022-12-15T15:43:26.838Z,132.20
2022-12-15T15:46:05.820Z,122.93
2022-12-15T15:48:39.309Z,138.67
2022-12-15T15:51:08.455Z,149.30
2022-12-15T15:53:40.062Z,136.60
2022-12-15T15:56:15.027Z,126.57
2022-12-15T15:58:47.967Z,139.50
2022-12-15T16:01:17.009Z,132.10
2022-12-15T16:03:46.984Z,136.73
2022-12-15T16:06:21.980Z,137.00
2022-12-15T16:08:55.859Z,140.20
2022-12-15T16:11:25.723Z,138.37
2022-12-15T16:13:54.482Z,130.97
2022-12-15T16:16:28.073Z,128.47
2022-12-15T16:18:59.289Z,134.13
2022-12-15T16:21:32.016Z,122.37
2022-12-15T16:24:09.167Z,127.90
2022-12-15T16:26:39.397Z,132.40
2022-12-15T16:29:16.128Z,123.53
2022-12-15T16:31:45.905Z,124.30
2022-12-15T16:34:16.576Z,125.50
2022-12-15T16:36:46.574Z,133.13
2022-12-15T16:39:27.428Z,124.27
2022-12-15T16:41:57.653Z,132.00
2022-12-15T16:44:27.687Z,136.30
2022-12-15T16:46:57.129Z,134.40
2022-12-15T16:49:27.752Z,138.83
2022-12-15T16:51:56.677Z,126.30
2022-12-15T16:54:31.707Z,129.27
2022-12-15T16:57:01.162Z,134.73
2022-12-15T16:59:34.266Z,134.80
2022-12-15T17:02:24.065Z,126.00
2022-12-15T17:04:55.249Z,123.37
2022-12-15T17:07:26.350Z,122.00
2022-12-15T17:09:57.034Z,120.90
2022-12-15T17:12:26.012Z,114.80
2022-12-15T17:14:54.664Z,122.10
2022-12-15T17:17:23.443Z,114.47
2022-12-15T17:20:27.576Z,118.73
2022-12-15T17:22:41.124Z,126.67
2022-12-15T17:25:37.429Z,123.63
2022-12-15T17:28:18.436Z,121.13
2022-12-15T17:30:50.339Z,126.23
2022-12-15T17:33:21.715Z,130.00
2022-12-15T17:35:53.708Z,124.43
2022-12-15T17:38:25.360Z,114.30
2022-12-15T17:40:57.707Z,120.80
2022-12-15T17:43:35.385Z,133.67
2022-12-15T17:46:04.603Z,127.90
2022-12-15T17:48:33.509Z,138.00
2022-12-15T17:51:12.263Z,112.87
2022-12-15T17:53:42.124Z,122.77
2022-12-15T17:56:14.846Z,131.60
2022-12-15T17:58:44.215Z,121.57
2022-12-15T18:01:15.273Z,129.10
2022-12-15T18:03:44.011Z,125.97
2022-12-15T18:06:16.052Z,116.30
2022-12-15T18:08:45.133Z,123.00
2022-12-15T18:11:17.764Z,128.77
2022-12-15T18:13:46.343Z,130.13
2022-12-15T18:16:15.440Z,127.77
2022-12-15T18:18:44.422Z,130.97
2022-12-15T18:21:18.383Z,134.67
2022-12-15T18:23:47.729Z,123.07
2022-12-15T18:26:21.095Z,117.70
2022-12-15T18:28:49.935Z,120.53
2022-12-15T18:31:26.949Z,121.30
2022-12-15T18:34:17.547Z,116.00
2022-12-15T18:36:47.031Z,124.00
2022-12-15T18:39:20.313Z,110.83
2022-12-15T18:41:51.123Z,115.40
2022-12-15T18:44:25.223Z,134.10
2022-12-15T18:46:55.235Z,125.57
2022-12-15T18:49:24.520Z,124.80
2022-12-15T18:51:53.499Z,119.63
2022-12-15T18:54:26.622Z,135.37
2022-12-15T18:57:02.665Z,110.43
2022-12-15T18:59:46.146Z,123.67
2022-12-15T19:02:17.638Z,102.20
2022-12-15T19:04:46.799Z,128.40
2022-12-15T19:07:15.661Z,120.23
2022-12-15T19:09:59.058Z,119.80
2022-12-15T19:12:29.224Z,116.73
2022-12-15T19:14:57.909Z,110.13
2022-12-15T19:17:43.960Z,109.50
2022-12-15T19:20:36.898Z,102.33
2022-12-15T19:23:06.793Z,112.73
2022-12-15T19:25:36.661Z,105.37
2022-12-15T19:28:15.289Z,96.17
2022-12-15T19:30:44.935Z,103.47
2022-12-15T19:33:15.615Z,101.40
2022-12-15T19:35:47.138Z,102.63
2022-12-15T19:38:25.575Z,100.17
2022-12-15T19:40:56.154Z,99.67
2022-12-15T19:43:27.504Z,96.07
2022-12-15T19:45:56.226Z,98.07
2022-12-15T19:48:24.909Z,98.43
2022-12-15T19:50:54.909Z,93.90
2022-12-15T19:53:28.816Z,94.50
2022-12-15T19:56:03.763Z,104.23
2022-12-15T19:58:37.035Z,94.67
2022-12-15T20:01:09.813Z,101.30
2022-12-15T20:03:39.633Z,103.87
2022-12-15T20:06:17.211Z,102.80
2022-12-15T20:08:48.624Z,96.23
2022-12-15T20:11:20.596Z,90.63
2022-12-15T20:13:52.812Z,99.17
2022-12-15T20:16:24.268Z,99.70
2022-12-15T20:18:55.234Z,106.57
2022-12-15T20:21:31.443Z,92.50
2022-12-15T20:24:07.316Z,106.40
2022-12-15T20:26:38.280Z,127.63
2022-12-15T20:29:22.690Z,112.53
2022-12-15T20:31:52.338Z,107.80
2022-12-15T20:34:22.203Z,105.33
2022-12-15T20:36:51.101Z,97.87
2022-12-15T20:39:26.575Z,95.03
2022-12-15T20:41:55.950Z,94.80
2022-12-15T20:44:26.846Z,93.73
2022-12-15T20:46:56.089Z,93.70
2022-12-15T20:49:25.902Z,97.10
2022-12-15T20:51:54.616Z,92.40
2022-12-15T20:54:24.196Z,96.50
2022-12-15T20:56:53.602Z,95.77
2022-12-15T20:59:22.265Z,90.30
2022-12-15T21:01:52.909Z,94.60
2022-12-15T21:04:28.483Z,104.60
2022-12-15T21:06:58.878Z,91.83
2022-12-15T21:09:27.889Z,104.37
2022-12-15T21:11:57.192Z,96.37
2022-12-15T21:14:26.240Z,94.07
2022-12-15T21:16:58.168Z,94.50
2022-12-15T21:19:27.530Z,92.70
2022-12-15T21:21:56.842Z,91.27
2022-12-15T21:24:28.435Z,105.83
2022-12-15T21:26:57.812Z,100.07
2022-12-15T21:29:29.300Z,96.17
2022-12-15T21:31:59.423Z,96.07
2022-12-15T21:34:28.033Z,95.13
2022-12-15T21:36:58.324Z,81.47
2022-12-15T21:39:31.190Z,86.30
2022-12-15T21:42:02.284Z,96.13
2022-12-15T21:44:31.110Z,93.23
2022-12-15T21:47:01.151Z,96.73
2022-12-15T21:49:28.833Z,89.80
2022-12-15T21:52:01.430Z,100.77
2022-12-15T21:54:36.034Z,122.97
2022-12-15T21:57:05.352Z,101.20
2022-12-15T21:59:34.864Z,97.13
2022-12-15T22:02:25.795Z,102.90
2022-12-15T22:04:55.085Z,131.23
2022-12-15T22:07:23.942Z,112.60
2022-12-15T22:09:52.665Z,106.53
2022-12-15T22:12:24.990Z,107.23
2022-12-15T22:14:54.020Z,102.60
2022-12-15T22:17:25.049Z,130.73
2022-12-15T22:19:53.764Z,109.00
2022-12-15T22:22:24.662Z,106.73
2022-12-15T22:24:55.659Z,113.43
2022-12-15T22:27:24.888Z,106.60
2022-12-15T22:29:53.866Z,103.57
2022-12-15T22:32:23.917Z,104.97
2022-12-15T22:34:52.635Z,101.23
2022-12-15T22:37:21.446Z,88.83
2022-12-15T22:39:50.154Z,91.17
2022-12-15T22:42:20.614Z,98.50
2022-12-15T22:44:49.342Z,100.77
2022-12-15T22:47:18.139Z,95.50
2022-12-15T22:49:48.381Z,91.70
2022-12-15T22:52:19.883Z,85.17
2022-12-15T22:54:49.385Z,88.67
2022-12-15T22:57:24.378Z,79.00
2022-12-15T23:00:00.598Z,87.33
2022-12-15T23:02:34.171Z,82.93
2022-12-15T23:05:05.229Z,89.27
2022-12-15T23:07:35.709Z,74.50
2022-12-15T23:10:22.633Z,79.90
2022-12-15T23:12:54.437Z,67.90
2022-12-15T23:15:41.802Z,70.77
2022-12-15T23:18:10.861Z,69.13
2022-12-15T23:20:41.566Z,65.33
2022-12-15T23:23:10.993Z,61.20
2022-12-15T23:25:39.727Z,56.73
2022-12-15T23:28:08.864Z,51.10
2022-12-15T23:30:37.544Z,53.27
2022-12-15T23:33:06.456Z,45.97
2022-12-15T23:35:35.878Z,50.00
2022-12-15T23:38:05.926Z,44.00
2022-12-15T23:40:34.606Z,40.83
2022-12-15T23:43:03.232Z,39.27
2022-12-15T23:45:31.941Z,42.67
2022-12-15T23:48:00.660Z,41.17
2022-12-15T23:50:29.243Z,36.17
2022-12-15T23:52:57.859Z,29.60
2022-12-15T23:55:27.896Z,31.27
2022-12-15T23:57:57.766Z,32.33
